createdAt,value
2022-08-28T00:01:20.929Z,20.14
2022-08-28T00:16:22.571Z,19.54
2022-08-28T00:31:28.261Z,19.08
2022-08-28T00:46:29.886Z,19.09
2022-08-28T01:01:31.565Z,19.12
2022-08-28T01:16:34.214Z,18.43
2022-08-28T01:31:37.876Z,19.02
2022-08-28T01:46:41.376Z,19.76
2022-08-28T02:01:43.620Z,18.51
2022-08-28T02:16:45.198Z,18.26
2022-08-28T02:31:46.759Z,18.77
2022-08-28T02:46:48.411Z,18.04
2022-08-28T03:01:50.518Z,17.90
2022-08-28T03:16:52.368Z,17.96
2022-08-28T03:31:53.999Z,18.75
2022-08-28T03:46:55.555Z,19.60
2022-08-28T04:01:57.115Z,18.68
2022-08-28T04:17:01.484Z,18.88
2022-08-28T04:32:03.578Z,20.99
2022-08-28T04:47:06.259Z,23.14
2022-08-28T05:02:07.902Z,23.52
2022-08-28T05:17:09.524Z,24.71
2022-08-28T05:32:11.059Z,25.93
2022-08-28T05:47:13.143Z,26.01
2022-08-28T06:02:14.716Z,26.27
2022-08-28T06:17:16.417Z,27.17
2022-08-28T06:32:25.197Z,26.67
2022-08-28T06:47:26.753Z,27.08
2022-08-28T07:02:28.626Z,28.22
2022-08-28T07:17:30.848Z,29.74
2022-08-28T07:32:33.642Z,30.77
2022-08-28T07:47:35.843Z,30.74
2022-08-28T08:02:37.366Z,31.61
2022-08-28T08:17:39.445Z,31.60
2022-08-28T08:32:41.131Z,31.38
2022-08-28T08:47:51.557Z,30.80
2022-08-28T09:03:03.404Z,31.83
2022-08-28T09:18:17.892Z,33.44
2022-08-28T09:33:28.051Z,31.96
2022-08-28T09:48:37.861Z,33.34
2022-08-28T10:03:45.481Z,32.32
2022-08-28T10:19:02.074Z,37.11
2022-08-28T10:34:07.133Z,37.20
2022-08-28T10:49:11.562Z,34.66
2022-08-28T11:04:24.958Z,33.64
2022-08-28T11:19:50.294Z,34.54
2022-08-28T11:35:02.909Z,35.33
2022-08-28T11:50:12.245Z,37.16
2022-08-28T12:05:16.489Z,34.26
2022-08-28T12:20:36.488Z,36.40
2022-08-28T12:35:38.139Z,33.96
2022-08-28T12:50:39.815Z,32.99
2022-08-28T13:05:41.457Z,33.31
2022-08-28T13:20:42.982Z,33.53
2022-08-28T13:35:44.938Z,33.43
2022-08-28T13:50:48.659Z,32.58
2022-08-28T14:05:50.301Z,32.45
2022-08-28T14:20:52.185Z,32.56
2022-08-28T14:35:53.978Z,31.60
2022-08-28T14:50:55.513Z,31.55
2022-08-28T15:06:01.368Z,31.24
2022-08-28T15:21:03.099Z,30.18
2022-08-28T15:36:05.272Z,29.96
2022-08-28T15:51:06.786Z,29.48
2022-08-28T16:06:12.976Z,29.43
2022-08-28T16:21:14.498Z,28.57
2022-08-28T16:36:16.381Z,27.96
2022-08-28T16:51:19.287Z,27.80
2022-08-28T17:06:23.752Z,27.23
2022-08-28T17:21:43.634Z,26.55
2022-08-28T17:36:45.199Z,26.60
2022-08-28T17:51:46.727Z,26.51
2022-08-28T18:06:48.368Z,25.94
2022-08-28T18:21:50.264Z,25.74
2022-08-28T18:36:52.108Z,25.06
2022-08-28T18:51:54.397Z,24.87
2022-08-28T19:06:55.986Z,24.71
2022-08-28T19:21:57.603Z,24.96
2022-08-28T19:36:59.575Z,23.94
2022-08-28T19:52:03.137Z,23.73
2022-08-28T20:07:04.932Z,23.27
2022-08-28T20:22:06.492Z,23.21
2022-08-28T20:37:08.081Z,22.97
2022-08-28T20:52:09.659Z,22.60
2022-08-28T21:07:11.538Z,22.72
2022-08-28T21:22:13.355Z,22.26
2022-08-28T21:37:17.052Z,22.16
2022-08-28T21:52:18.944Z,22.46
2022-08-28T22:16:08.740Z,21.68
2022-08-28T22:31:10.372Z,21.44
2022-08-28T22:46:12.578Z,21.45
2022-08-28T23:01:20.405Z,21.22
2022-08-28T23:16:24.262Z,20.67
2022-08-28T23:31:26.165Z,20.79
2022-08-28T23:46:28.717Z,20.32
